Time;durP1;ratioP1;P1;durP2;ratioP2;P2;SDS_P1;SDS_P2;PMS_P1;PMS_P2;Temp;Humidity;BMP_temperature;BMP_pressure;BME280_temperature;BME280_humidity;BME280_pressure;Samples;Min_cycle;Max_cycle;Signal;HPM_P1;HPM_P2
2023/08/14 00:01:39;;;;;;;5.18;2.83;;;;;;;;;;5136890;27;20050;-61
2023/08/14 00:04:06;;;;;;;9.07;3.67;;;;;;;;;;5135876;27;20502;-61
2023/08/14 00:06:33;;;;;;;5.45;2.50;;;;;;;;;;5136255;27;20054;-61
2023/08/14 00:09:00;;;;;;;7.53;3.10;;;;;;;;;;5136450;27;20047;-60
2023/08/14 00:11:27;;;;;;;7.60;2.80;;;;;;;;;;5136389;27;20051;-60
2023/08/14 00:13:57;;;;;;;8.10;3.15;;;;;;;;;;5136546;27;20051;-60
2023/08/14 00:16:24;;;;;;;5.57;2.75;;;;;;;;;;5134912;27;20059;-61
2023/08/14 00:18:55;;;;;;;7.90;2.80;;;;;;;;;;5136291;27;20050;-61
2023/08/14 00:21:25;;;;;;;8.55;3.05;;;;;;;;;;5136118;27;20047;-61
2023/08/14 00:23:52;;;;;;;5.15;2.80;;;;;;;;;;5136471;27;20055;-61
2023/08/14 00:26:22;;;;;;;7.05;3.10;;;;;;;;;;5135908;27;20043;-60
2023/08/14 00:28:49;;;;;;;5.03;2.78;;;;;;;;;;5136300;27;20412;-61
2023/08/14 00:31:17;;;;;;;6.72;2.58;;;;;;;;;;5135741;27;20051;-61
2023/08/14 00:33:46;;;;;;;6.00;2.78;;;;;;;;;;5135617;27;20058;-61
2023/08/14 00:36:14;;;;;;;6.80;3.13;;;;;;;;;;5135758;27;20059;-61
2023/08/14 00:38:41;;;;;;;6.47;3.40;;;;;;;;;;5135715;27;20059;-61
2023/08/14 00:41:08;;;;;;;5.70;3.05;;;;;;;;;;5135898;27;20055;-61
2023/08/14 00:43:35;;;;;;;4.60;2.97;;;;;;;;;;5136075;27;20058;-60
2023/08/14 00:46:07;;;;;;;8.32;3.88;;;;;;;;;;5135826;27;20404;-60
2023/08/14 00:48:35;;;;;;;7.88;3.78;;;;;;;;;;5135810;27;20051;-60
2023/08/14 00:51:02;;;;;;;8.35;4.10;;;;;;;;;;5135428;27;20073;-61
2023/08/14 00:53:30;;;;;;;8.10;3.00;;;;;;;;;;5135770;27;20491;-60
2023/08/14 00:55:58;;;;;;;6.60;2.92;;;;;;;;;;5135483;27;20043;-60
2023/08/14 00:58:25;;;;;;;8.55;3.58;;;;;;;;;;5135584;27;20047;-60
2023/08/14 01:00:59;;;;;;;7.88;3.47;;;;;;;;;;5135583;27;20062;-60
2023/08/14 01:03:26;;;;;;;8.40;3.17;;;;;;;;;;5134673;27;20058;-61
2023/08/14 01:05:52;;;;;;;6.65;3.47;;;;;;;;;;5135375;27;20051;-60
2023/08/14 01:08:19;;;;;;;5.70;3.78;;;;;;;;;;5135365;27;20047;-60
2023/08/14 01:10:51;;;;;;;7.93;3.22;;;;;;;;;;5135444;27;20055;-61
2023/08/14 01:13:21;;;;;;;9.95;3.30;;;;;;;;;;5135322;27;20051;-60
2023/08/14 01:15:50;;;;;;;6.30;3.00;;;;;;;;;;5134853;27;20047;-60
2023/08/14 01:18:20;;;;;;;6.82;3.70;;;;;;;;;;5135223;27;20078;-61
2023/08/14 01:20:47;;;;;;;;;;;;;;;;;;5134036;27;20055;-61
2023/08/14 01:23:18;;;;;;;7.35;3.58;;;;;;;;;;5135028;27;19926;-61
2023/08/14 01:25:46;;;;;;;5.85;2.95;;;;;;;;;;5135058;27;20043;-60
2023/08/14 01:28:14;;;;;;;5.68;3.22;;;;;;;;;;5134815;27;20055;-60
2023/08/14 01:30:40;;;;;;;4.95;3.42;;;;;;;;;;5134311;27;20051;-60
2023/08/14 01:33:07;;;;;;;6.50;3.60;;;;;;;;;;5134699;27;20052;-61
2023/08/14 01:35:37;;;;;;;5.47;3.00;;;;;;;;;;5114247;27;20062;-60
2023/08/14 01:38:09;;;;;;;10.07;3.55;;;;;;;;;;5129848;27;20055;-60
2023/08/14 01:40:38;;;;;;;5.93;3.22;;;;;;;;;;5134568;27;20507;-60
2023/08/14 01:43:08;;;;;;;6.07;3.30;;;;;;;;;;5134838;27;20062;-60
2023/08/14 01:45:36;;;;;;;6.88;3.63;;;;;;;;;;5134743;27;20054;-60
2023/08/14 01:48:03;;;;;;;7.93;3.47;;;;;;;;;;5134461;27;20059;-60
2023/08/14 01:50:30;;;;;;;7.88;3.30;;;;;;;;;;5134012;27;20051;-60
2023/08/14 01:52:58;;;;;;;8.65;3.97;;;;;;;;;;5134594;27;20047;-60
2023/08/14 01:55:25;;;;;;;8.90;3.30;;;;;;;;;;5134360;27;20051;-59
2023/08/14 01:57:52;;;;;;;6.05;3.30;;;;;;;;;;5133333;27;20136;-61
2023/08/14 02:00:20;;;;;;;8.90;3.53;;;;;;;;;;5134167;27;20062;-60
2023/08/14 02:02:47;;;;;;;9.47;3.70;;;;;;;;;;5134243;27;20051;-61
2023/08/14 02:05:14;;;;;;;6.03;3.10;;;;;;;;;;5134045;27;20415;-60
2023/08/14 02:07:42;;;;;;;5.20;3.90;;;;;;;;;;5134051;27;20051;-60
2023/08/14 02:10:09;;;;;;;5.15;3.42;;;;;;;;;;5134243;27;20051;-60
2023/08/14 02:12:39;;;;;;;6.80;3.70;;;;;;;;;;5133673;27;20422;-60
2023/08/14 02:15:07;;;;;;;9.00;3.72;;;;;;;;;;5132800;27;20058;-60
2023/08/14 02:17:35;;;;;;;5.93;3.42;;;;;;;;;;5133892;27;20383;-60
2023/08/14 02:20:02;;;;;;;8.20;3.38;;;;;;;;;;5133762;27;20047;-60
2023/08/14 02:22:28;;;;;;;7.68;3.67;;;;;;;;;;5133554;27;20051;-60
2023/08/14 02:24:55;;;;;;;8.32;3.83;;;;;;;;;;5133881;27;20062;-61
2023/08/14 02:27:22;;;;;;;7.80;3.42;;;;;;;;;;5133432;27;20055;-60
2023/08/14 02:29:49;;;;;;;6.60;3.17;;;;;;;;;;5133797;27;20051;-60
2023/08/14 02:32:16;;;;;;;8.43;3.45;;;;;;;;;;5133402;27;20058;-60
2023/08/14 02:34:44;;;;;;;6.90;3.35;;;;;;;;;;5133283;27;20417;-60
2023/08/14 02:37:11;;;;;;;6.07;3.17;;;;;;;;;;5133294;27;20476;-60
2023/08/14 02:39:38;;;;;;;7.90;3.60;;;;;;;;;;5133807;27;20055;-60
2023/08/14 02:42:05;;;;;;;5.38;3.58;;;;;;;;;;5133223;27;20047;-60
2023/08/14 02:44:32;;;;;;;7.22;3.75;;;;;;;;;;5133316;27;20055;-60
2023/08/14 02:46:59;;;;;;;6.20;3.15;;;;;;;;;;5133334;27;20047;-60
2023/08/14 02:49:26;;;;;;;9.50;3.70;;;;;;;;;;5133411;27;20051;-60
2023/08/14 02:51:54;;;;;;;6.93;3.45;;;;;;;;;;5133557;27;20399;-60
2023/08/14 02:54:21;;;;;;;6.07;3.20;;;;;;;;;;5133605;27;20054;-60
2023/08/14 02:56:48;;;;;;;9.27;3.63;;;;;;;;;;5133456;28;20047;-60
2023/08/14 02:59:14;;;;;;;6.05;3.03;;;;;;;;;;5133696;28;20066;-59
2023/08/14 03:01:41;;;;;;;5.93;3.42;;;;;;;;;;5133210;28;20051;-60
2023/08/14 03:04:08;;;;;;;6.32;3.72;;;;;;;;;;5133553;28;20059;-60
2023/08/14 03:06:35;;;;;;;11.07;5.10;;;;;;;;;;5133280;28;20047;-60
2023/08/14 03:09:03;;;;;;;7.28;3.80;;;;;;;;;;5133381;28;20391;-60
2023/08/14 03:11:30;;;;;;;4.65;3.50;;;;;;;;;;5132877;28;20055;-60
2023/08/14 03:13:57;;;;;;;6.30;4.22;;;;;;;;;;5133290;28;20058;-60
2023/08/14 03:16:23;;;;;;;6.78;3.60;;;;;;;;;;5133197;28;20066;-60
2023/08/14 03:18:50;;;;;;;7.68;3.58;;;;;;;;;;5133477;28;20051;-60
2023/08/14 03:21:17;;;;;;;5.10;3.33;;;;;;;;;;5133262;28;20051;-60
2023/08/14 03:23:45;;;;;;;6.63;3.17;;;;;;;;;;5133393;28;20490;-60
2023/08/14 03:26:14;;;;;;;4.97;3.10;;;;;;;;;;5135195;27;20047;-60
2023/08/14 03:28:44;;;;;;;7.50;3.22;;;;;;;;;;5137361;27;20055;-60
2023/08/14 03:31:11;;;;;;;5.50;3.60;;;;;;;;;;5137275;27;20416;-60
2023/08/14 03:33:37;;;;;;;9.77;3.45;;;;;;;;;;5137012;27;20051;-60
2023/08/14 03:36:04;;;;;;;8.07;3.70;;;;;;;;;;5137217;27;20051;-61
2023/08/14 03:38:32;;;;;;;7.15;3.83;;;;;;;;;;5136498;27;20047;-60
2023/08/14 03:40:58;;;;;;;6.45;3.15;;;;;;;;;;5137068;27;20051;-60
2023/08/14 03:43:27;;;;;;;7.72;3.67;;;;;;;;;;5137159;27;20047;-60
2023/08/14 03:45:53;;;;;;;5.88;3.97;;;;;;;;;;5136675;27;20051;-60
2023/08/14 03:48:20;;;;;;;7.40;3.67;;;;;;;;;;5137023;27;20475;-59
2023/08/14 03:50:47;;;;;;;7.63;3.22;;;;;;;;;;5136939;27;20411;-60
2023/08/14 03:53:14;;;;;;;5.80;3.17;;;;;;;;;;5136898;27;20058;-60
2023/08/14 03:55:41;;;;;;;8.10;4.68;;;;;;;;;;5136896;27;20055;-59
2023/08/14 03:58:08;;;;;;;6.43;3.80;;;;;;;;;;5136717;27;20051;-59
2023/08/14 04:00:36;;;;;;;6.93;3.78;;;;;;;;;;5136495;27;20051;-59
2023/08/14 04:03:04;;;;;;;6.15;3.80;;;;;;;;;;5136190;27;20047;-59
2023/08/14 04:05:31;;;;;;;5.57;3.13;;;;;;;;;;5136335;27;20411;-59
2023/08/14 04:07:58;;;;;;;8.73;3.83;;;;;;;;;;5136101;27;20054;-61
2023/08/14 04:10:25;;;;;;;5.78;3.60;;;;;;;;;;5136141;27;20051;-60
2023/08/14 04:12:52;;;;;;;6.43;3.70;;;;;;;;;;5135788;27;20050;-59
2023/08/14 04:15:19;;;;;;;6.13;3.55;;;;;;;;;;5136027;27;20051;-60
2023/08/14 04:17:47;;;;;;;9.38;4.80;;;;;;;;;;5136116;27;20497;-59
2023/08/14 04:20:14;;;;;;;7.00;3.72;;;;;;;;;;5136170;27;20047;-60
2023/08/14 04:22:41;;;;;;;7.13;3.40;;;;;;;;;;5136200;27;20051;-60
2023/08/14 04:25:08;;;;;;;8.25;2.97;;;;;;;;;;5135918;27;20062;-60
2023/08/14 04:27:36;;;;;;;7.97;3.25;;;;;;;;;;5135849;27;20043;-60
2023/08/14 04:30:03;;;;;;;8.32;3.30;;;;;;;;;;5136207;27;20062;-60
2023/08/14 04:32:30;;;;;;;6.55;3.25;;;;;;;;;;5135604;27;20051;-60
2023/08/14 04:34:59;;;;;;;5.70;3.08;;;;;;;;;;5135562;27;20073;-60
2023/08/14 04:37:25;;;;;;;8.27;3.80;;;;;;;;;;5134605;27;20047;-60
2023/08/14 04:39:56;;;;;;;7.22;3.67;;;;;;;;;;5136194;27;20547;-60
2023/08/14 04:42:26;;;;;;;5.80;3.17;;;;;;;;;;5135496;27;20132;-59
2023/08/14 04:44:53;;;;;;;5.43;3.75;;;;;;;;;;5135592;27;20066;-59
2023/08/14 04:47:19;;;;;;;5.32;3.10;;;;;;;;;;5135479;27;20051;-59
2023/08/14 04:49:49;;;;;;;6.93;3.65;;;;;;;;;;5135772;27;20062;-59
2023/08/14 04:52:17;;;;;;;4.53;3.20;;;;;;;;;;5135192;27;20086;-59
2023/08/14 04:54:44;;;;;;;7.45;3.67;;;;;;;;;;5135562;27;20047;-59
2023/08/14 04:57:10;;;;;;;8.25;3.17;;;;;;;;;;5135182;27;20058;-60
2023/08/14 04:59:37;;;;;;;6.50;3.03;;;;;;;;;;5135047;27;20055;-59
2023/08/14 05:02:04;;;;;;;7.38;3.53;;;;;;;;;;5135081;27;20147;-60
2023/08/14 05:04:31;;;;;;;5.38;3.28;;;;;;;;;;5134997;27;20058;-60
2023/08/14 05:06:58;;;;;;;6.88;4.25;;;;;;;;;;5134971;27;20058;-60
2023/08/14 05:09:26;;;;;;;9.05;4.10;;;;;;;;;;5134706;27;20059;-59
2023/08/14 05:11:53;;;;;;;9.40;3.90;;;;;;;;;;5135049;27;20062;-59
2023/08/14 05:14:20;;;;;;;6.15;3.97;;;;;;;;;;5134816;27;20120;-60
2023/08/14 05:16:47;;;;;;;9.45;4.18;;;;;;;;;;5134642;27;20051;-60
2023/08/14 05:19:14;;;;;;;7.40;3.88;;;;;;;;;;5135098;27;20043;-59
2023/08/14 05:21:40;;;;;;;9.38;4.13;;;;;;;;;;5134511;27;20050;-58
2023/08/14 05:24:07;;;;;;;6.50;3.67;;;;;;;;;;5134900;27;20047;-59
2023/08/14 05:26:35;;;;;;;7.93;3.67;;;;;;;;;;5134889;27;20403;-60
2023/08/14 05:29:02;;;;;;;8.48;3.90;;;;;;;;;;5134333;27;20046;-60
2023/08/14 05:31:29;;;;;;;7.15;3.50;;;;;;;;;;5134699;27;20383;-59
2023/08/14 05:33:56;;;;;;;6.90;3.65;;;;;;;;;;5134301;27;20124;-60
2023/08/14 05:36:23;;;;;;;7.00;3.70;;;;;;;;;;5134499;27;20055;-59
2023/08/14 05:38:49;;;;;;;7.72;4.03;;;;;;;;;;5134548;27;20062;-60
2023/08/14 05:41:17;;;;;;;7.25;3.80;;;;;;;;;;5134542;27;20051;-60
2023/08/14 05:43:46;;;;;;;5.75;3.97;;;;;;;;;;5134583;27;20078;-60
2023/08/14 05:46:13;;;;;;;10.10;4.75;;;;;;;;;;5134267;27;20051;-60
2023/08/14 05:48:39;;;;;;;10.18;5.63;;;;;;;;;;5134405;27;20047;-60
2023/08/14 05:51:06;;;;;;;6.80;3.97;;;;;;;;;;5134084;27;20047;-60
2023/08/14 05:53:33;;;;;;;7.38;4.05;;;;;;;;;;5133611;27;20500;-60
2023/08/14 05:56:00;;;;;;;8.95;4.85;;;;;;;;;;5133544;27;20364;-59
2023/08/14 05:58:26;;;;;;;7.70;3.83;;;;;;;;;;5134054;27;20051;-60
2023/08/14 06:00:54;;;;;;;11.20;4.38;;;;;;;;;;5134050;27;20047;-60
2023/08/14 06:03:21;;;;;;;18.17;4.60;;;;;;;;;;5133791;27;20146;-60
2023/08/14 06:05:48;;;;;;;20.02;6.13;;;;;;;;;;5133761;27;20062;-60
2023/08/14 06:08:15;;;;;;;15.73;8.65;;;;;;;;;;5133885;27;20054;-60
2023/08/14 06:10:42;;;;;;;10.15;7.00;;;;;;;;;;5133662;27;20047;-60
2023/08/14 06:13:09;;;;;;;12.07;7.63;;;;;;;;;;5133889;27;20051;-60
2023/08/14 06:15:35;;;;;;;7.82;5.38;;;;;;;;;;5133613;27;20061;-60
2023/08/14 06:18:04;;;;;;;8.93;5.32;;;;;;;;;;5133709;27;20472;-60
2023/08/14 06:20:31;;;;;;;10.15;5.97;;;;;;;;;;5133745;27;20047;-60
2023/08/14 06:22:58;;;;;;;8.70;4.85;;;;;;;;;;5133801;27;20051;-60
2023/08/14 06:25:28;;;;;;;8.57;4.25;;;;;;;;;;5133499;27;20055;-60
2023/08/14 06:27:55;;;;;;;9.52;3.97;;;;;;;;;;5133511;27;20053;-60
2023/08/14 06:30:22;;;;;;;5.97;3.72;;;;;;;;;;5133688;27;20058;-61
2023/08/14 06:32:49;;;;;;;8.50;5.05;;;;;;;;;;5133589;27;20051;-60
2023/08/14 06:35:18;;;;;;;12.13;6.53;;;;;;;;;;5133296;27;20055;-60
2023/08/14 06:37:44;;;;;;;15.27;8.63;;;;;;;;;;5133315;27;20402;-60
2023/08/14 06:40:12;;;;;;;12.07;6.68;;;;;;;;;;5133313;27;20074;-60
2023/08/14 06:42:39;;;;;;;12.25;5.72;;;;;;;;;;5133365;27;20471;-60
2023/08/14 06:45:06;;;;;;;9.02;5.32;;;;;;;;;;5133378;27;20396;-60
2023/08/14 06:47:33;;;;;;;24.25;7.22;;;;;;;;;;5133239;27;20047;-60
2023/08/14 06:50:00;;;;;;;8.70;5.10;;;;;;;;;;5133475;27;20511;-60
2023/08/14 06:52:28;;;;;;;21.90;6.72;;;;;;;;;;5133042;27;20055;-60
2023/08/14 06:54:55;;;;;;;12.95;5.35;;;;;;;;;;5133517;28;20059;-60
2023/08/14 06:57:22;;;;;;;6.82;4.45;;;;;;;;;;5133223;28;20058;-60
2023/08/14 06:59:48;;;;;;;9.45;4.55;;;;;;;;;;5132889;27;20047;-60
2023/08/14 07:02:15;;;;;;;10.98;5.32;;;;;;;;;;5133092;28;20499;-60
2023/08/14 07:04:42;;;;;;;12.02;5.20;;;;;;;;;;5107955;28;20079;-60
2023/08/14 07:07:09;;;;;;;7.93;4.82;;;;;;;;;;5095648;28;20062;-60
2023/08/14 07:09:37;;;;;;;11.48;4.68;;;;;;;;;;5095008;28;20479;-61
2023/08/14 07:12:04;;;;;;;6.28;4.00;;;;;;;;;;5093763;28;20052;-60
2023/08/14 07:14:31;;;;;;;7.85;3.75;;;;;;;;;;5104006;28;20059;-60
2023/08/14 07:16:58;;;;;;;5.43;3.05;;;;;;;;;;5098413;28;20047;-60
2023/08/14 07:19:24;;;;;;;6.45;3.42;;;;;;;;;;5094161;28;20047;-61
2023/08/14 07:21:51;;;;;;;5.28;3.13;;;;;;;;;;5100243;28;20062;-61
2023/08/14 07:24:18;;;;;;;8.75;3.28;;;;;;;;;;5102837;28;20059;-62
2023/08/14 07:26:47;;;;;;;8.00;3.38;;;;;;;;;;5100014;28;20420;-61
2023/08/14 07:29:14;;;;;;;5.03;2.88;;;;;;;;;;5105641;28;20055;-63
2023/08/14 07:31:41;;;;;;;5.78;3.20;;;;;;;;;;5098187;28;20071;-62
2023/08/14 07:34:07;;;;;;;7.35;3.15;;;;;;;;;;5104898;28;20052;-62
2023/08/14 07:36:34;;;;;;;4.30;3.03;;;;;;;;;;5105483;28;20392;-62
2023/08/14 07:39:01;;;;;;;8.63;3.10;;;;;;;;;;5104888;28;20044;-62
2023/08/14 07:41:28;;;;;;;5.35;2.85;;;;;;;;;;5097958;28;20051;-63
2023/08/14 07:43:56;;;;;;;5.47;2.67;;;;;;;;;;5109747;28;20047;-60
2023/08/14 07:46:23;;;;;;;6.38;2.97;;;;;;;;;;5115789;28;20412;-61
2023/08/14 07:48:50;;;;;;;5.45;2.90;;;;;;;;;;5105725;28;20054;-62
2023/08/14 07:51:17;;;;;;;5.72;4.05;;;;;;;;;;5103538;28;20402;-63
2023/08/14 07:53:43;;;;;;;10.02;7.97;;;;;;;;;;5108844;28;20051;-62
2023/08/14 07:56:10;;;;;;;5.97;4.07;;;;;;;;;;5104318;28;20427;-62
2023/08/14 07:58:39;;;;;;;8.52;4.00;;;;;;;;;;5106034;28;20059;-62
2023/08/14 08:01:08;;;;;;;15.82;14.15;;;;;;;;;;5106574;28;20048;-62
2023/08/14 08:03:35;;;;;;;7.47;3.90;;;;;;;;;;5106635;28;20056;-62
2023/08/14 08:06:01;;;;;;;5.97;2.90;;;;;;;;;;5096533;28;20059;-63
2023/08/14 08:08:28;;;;;;;5.07;2.70;;;;;;;;;;5092785;28;20067;-63
2023/08/14 08:10:55;;;;;;;4.90;2.70;;;;;;;;;;5105437;28;20058;-62
2023/08/14 08:13:22;;;;;;;6.20;2.92;;;;;;;;;;5083512;28;20059;-62
2023/08/14 08:15:49;;;;;;;8.77;5.97;;;;;;;;;;5102348;28;20052;-63
2023/08/14 08:18:17;;;;;;;5.80;3.40;;;;;;;;;;5102893;28;20060;-62
2023/08/14 08:20:44;;;;;;;7.35;2.92;;;;;;;;;;5107651;27;20408;-62
2023/08/14 08:23:10;;;;;;;7.18;2.80;;;;;;;;;;5105638;27;20412;-62
2023/08/14 08:25:37;;;;;;;6.93;2.97;;;;;;;;;;5104780;27;20052;-62
2023/08/14 08:28:04;;;;;;;4.05;2.25;;;;;;;;;;5103496;27;20048;-62
2023/08/14 08:30:31;;;;;;;9.55;3.00;;;;;;;;;;5110138;28;20058;-60
2023/08/14 08:32:58;;;;;;;4.95;2.70;;;;;;;;;;5123391;27;20047;-61
2023/08/14 08:35:26;;;;;;;3.85;2.45;;;;;;;;;;5111045;27;20056;-62
2023/08/14 08:37:53;;;;;;;4.22;2.10;;;;;;;;;;5114238;28;20062;-62
2023/08/14 08:40:19;;;;;;;7.60;2.60;;;;;;;;;;5112248;27;20054;-63
2023/08/14 08:42:48;;;;;;;5.70;2.30;;;;;;;;;;5108890;28;20047;-62
2023/08/14 08:45:16;;;;;;;5.80;2.28;;;;;;;;;;5110936;28;20047;-62
2023/08/14 08:47:44;;;;;;;4.53;1.95;;;;;;;;;;5112896;28;20050;-62
2023/08/14 08:50:11;;;;;;;6.25;2.50;;;;;;;;;;5112963;28;20058;-63
2023/08/14 08:52:39;;;;;;;3.90;1.95;;;;;;;;;;5113352;28;20058;-63
2023/08/14 08:55:06;;;;;;;;;;;;;;;;;;5113456;28;20518;-63
2023/08/14 08:57:33;;;;;;;4.38;2.53;;;;;;;;;;5111852;27;19927;-63
2023/08/14 09:00:00;;;;;;;3.78;2.40;;;;;;;;;;5113703;28;20503;-63
2023/08/14 09:02:28;;;;;;;3.90;2.08;;;;;;;;;;5109885;28;20424;-63
2023/08/14 09:04:54;;;;;;;4.88;2.35;;;;;;;;;;5111596;28;20058;-63
2023/08/14 09:07:21;;;;;;;4.00;2.15;;;;;;;;;;5111572;28;20051;-63
2023/08/14 09:09:50;;;;;;;3.88;2.03;;;;;;;;;;5112648;28;20052;-63
2023/08/14 09:12:16;;;;;;;3.63;1.95;;;;;;;;;;5106207;28;20051;-63
2023/08/14 09:14:44;;;;;;;4.33;2.20;;;;;;;;;;5111561;28;20427;-62
2023/08/14 09:17:11;;;;;;;4.10;2.00;;;;;;;;;;5109357;28;20048;-62
2023/08/14 09:19:38;;;;;;;4.82;2.10;;;;;;;;;;5112377;28;20047;-62
2023/08/14 09:22:05;;;;;;;4.20;1.77;;;;;;;;;;5110077;28;20055;-62
2023/08/14 09:24:33;;;;;;;4.95;2.20;;;;;;;;;;5111356;28;20054;-62
2023/08/14 09:27:02;;;;;;;4.78;2.00;;;;;;;;;;5110696;28;20055;-62
2023/08/14 09:29:30;;;;;;;4.32;2.40;;;;;;;;;;5110213;27;20055;-62
2023/08/14 09:31:59;;;;;;;5.68;1.95;;;;;;;;;;5112381;28;20054;-62
2023/08/14 09:34:25;;;;;;;3.55;1.60;;;;;;;;;;5101517;28;20066;-62
2023/08/14 09:36:52;;;;;;;5.00;2.03;;;;;;;;;;5109363;28;20048;-62
2023/08/14 09:39:19;;;;;;;4.95;2.00;;;;;;;;;;5110981;28;20052;-62
2023/08/14 09:41:47;;;;;;;4.13;2.10;;;;;;;;;;5110868;28;20052;-62
2023/08/14 09:44:15;;;;;;;4.20;2.00;;;;;;;;;;5105879;27;20048;-62
2023/08/14 09:46:41;;;;;;;4.03;2.05;;;;;;;;;;5105199;28;20051;-62
2023/08/14 09:49:08;;;;;;;3.30;2.03;;;;;;;;;;5112402;28;20044;-62
2023/08/14 09:51:35;;;;;;;4.32;2.05;;;;;;;;;;5110176;28;21023;-61
2023/08/14 09:54:03;;;;;;;4.30;2.25;;;;;;;;;;5111826;28;20063;-61
2023/08/14 09:56:31;;;;;;;9.40;2.53;;;;;;;;;;5111534;28;20051;-62
2023/08/14 09:58:58;;;;;;;4.78;1.92;;;;;;;;;;5109941;28;20055;-62
2023/08/14 10:01:26;;;;;;;4.72;2.38;;;;;;;;;;5112497;28;20074;-62
2023/08/14 10:03:54;;;;;;;5.35;1.77;;;;;;;;;;5110965;27;20055;-62
2023/08/14 10:06:23;;;;;;;4.32;2.00;;;;;;;;;;5110840;27;20052;-61
2023/08/14 10:08:50;;;;;;;3.90;2.00;;;;;;;;;;5110400;28;20048;-61
2023/08/14 10:11:18;;;;;;;3.97;2.05;;;;;;;;;;5110856;27;20051;-62
2023/08/14 10:13:46;;;;;;;3.17;1.85;;;;;;;;;;5107481;27;20415;-62
2023/08/14 10:16:15;;;;;;;4.30;2.00;;;;;;;;;;5108617;28;20062;-64
2023/08/14 10:18:45;;;;;;;3.58;2.00;;;;;;;;;;5113062;28;20055;-61
2023/08/14 10:21:13;;;;;;;3.60;1.90;;;;;;;;;;5113072;28;20059;-61
2023/08/14 10:23:40;;;;;;;6.05;2.65;;;;;;;;;;5112648;28;20066;-63
2023/08/14 10:26:06;;;;;;;;;;;;;;;;;;5113868;28;20070;-63
2023/08/14 10:28:34;;;;;;;13.95;2.72;;;;;;;;;;5110738;28;19928;-63
2023/08/14 10:31:01;;;;;;;4.68;2.15;;;;;;;;;;5112788;28;20052;-62
2023/08/14 10:33:27;;;;;;;;;;;;;;;;;;5112597;28;20058;-61
2023/08/14 10:35:57;;;;;;;3.40;1.92;;;;;;;;;;5091835;28;19920;-63
2023/08/14 10:38:39;;;;;;;4.07;2.38;;;;;;;;;;5106800;28;20056;-63
2023/08/14 10:41:07;;;;;;;3.65;2.13;;;;;;;;;;5112745;28;20054;-63
2023/08/14 10:43:33;;;;;;;3.97;2.10;;;;;;;;;;5110001;28;20051;-63
2023/08/14 10:46:05;;;;;;;4.38;2.13;;;;;;;;;;5109792;28;20055;-63
2023/08/14 10:48:36;;;;;;;5.30;2.25;;;;;;;;;;5112268;28;20060;-62
2023/08/14 10:51:06;;;;;;;3.45;1.90;;;;;;;;;;5111106;28;20526;-62
2023/08/14 10:53:33;;;;;;;4.50;2.00;;;;;;;;;;5111255;28;20047;-62
2023/08/14 10:56:00;;;;;;;3.33;1.80;;;;;;;;;;5110107;28;20052;-63
2023/08/14 10:58:38;;;;;;;4.53;2.30;;;;;;;;;;5109156;28;20047;-62
2023/08/14 11:01:05;;;;;;;3.80;1.95;;;;;;;;;;5109106;28;20062;-62
2023/08/14 11:03:33;;;;;;;5.65;1.90;;;;;;;;;;5109900;28;20062;-62
2023/08/14 11:06:00;;;;;;;3.53;1.90;;;;;;;;;;5110604;28;20052;-61
2023/08/14 11:08:30;;;;;;;5.35;2.33;;;;;;;;;;5109160;28;20074;-61
2023/08/14 11:10:57;;;;;;;5.30;2.03;;;;;;;;;;5109801;28;20354;-61
2023/08/14 11:13:28;;;;;;;4.17;2.13;;;;;;;;;;5109885;28;20048;-64
2023/08/14 11:15:55;;;;;;;4.40;1.95;;;;;;;;;;5109302;28;21282;-61
2023/08/14 11:18:22;;;;;;;4.65;1.95;;;;;;;;;;5110239;28;20055;-64
2023/08/14 11:20:49;;;;;;;5.63;2.33;;;;;;;;;;5109808;28;20048;-64
2023/08/14 11:23:16;;;;;;;3.45;1.80;;;;;;;;;;5109736;28;20043;-62
2023/08/14 11:25:44;;;;;;;3.67;1.92;;;;;;;;;;5108527;28;20059;-63
2023/08/14 11:28:10;;;;;;;4.30;2.55;;;;;;;;;;5110196;28;20047;-63
2023/08/14 11:30:37;;;;;;;2.63;1.77;;;;;;;;;;5108460;28;20051;-63
2023/08/14 11:33:05;;;;;;;5.00;2.22;;;;;;;;;;5105504;28;20074;-63
2023/08/14 11:35:32;;;;;;;5.20;1.60;;;;;;;;;;5102288;28;20062;-63
2023/08/14 11:37:59;;;;;;;6.07;1.90;;;;;;;;;;5111018;28;20052;-63
2023/08/14 11:40:26;;;;;;;3.95;1.90;;;;;;;;;;5106143;28;20040;-63
2023/08/14 11:42:54;;;;;;;3.38;1.83;;;;;;;;;;5111160;28;20061;-63
2023/08/14 11:45:21;;;;;;;6.45;2.40;;;;;;;;;;5108104;28;20488;-63
2023/08/14 11:47:49;;;;;;;3.65;2.00;;;;;;;;;;5112449;28;20055;-63
2023/08/14 11:50:17;;;;;;;4.53;1.92;;;;;;;;;;5113577;28;20484;-62
2023/08/14 11:52:44;;;;;;;4.20;2.10;;;;;;;;;;5113511;28;20051;-63
2023/08/14 11:55:11;;;;;;;3.63;1.90;;;;;;;;;;5113715;28;20079;-62
2023/08/14 11:57:38;;;;;;;4.18;2.10;;;;;;;;;;5113708;28;20052;-63
2023/08/14 12:00:10;;;;;;;3.45;1.98;;;;;;;;;;5112579;27;20407;-62
2023/08/14 12:02:37;;;;;;;3.50;2.10;;;;;;;;;;5112918;28;20044;-63
2023/08/14 12:05:05;;;;;;;5.57;2.08;;;;;;;;;;5110994;27;20062;-62
2023/08/14 12:07:32;;;;;;;4.30;2.00;;;;;;;;;;5112830;28;20917;-63
2023/08/14 12:09:59;;;;;;;4.38;1.75;;;;;;;;;;5112174;28;20043;-63
2023/08/14 12:12:26;;;;;;;4.70;2.03;;;;;;;;;;5112874;28;20389;-63
2023/08/14 12:14:53;;;;;;;3.60;1.90;;;;;;;;;;5112898;27;20050;-63
2023/08/14 12:17:22;;;;;;;4.20;1.97;;;;;;;;;;5111930;28;20059;-63
2023/08/14 12:19:48;;;;;;;;;;;;;;;;;;5113806;28;20052;-62
2023/08/14 12:22:15;;;;;;;5.70;2.05;;;;;;;;;;5111249;28;20361;-62
2023/08/14 12:24:43;;;;;;;5.05;2.13;;;;;;;;;;5113054;28;20052;-63
2023/08/14 12:27:16;;;;;;;5.55;2.42;;;;;;;;;;5112777;28;20043;-62
2023/08/14 12:29:44;;;;;;;4.55;2.10;;;;;;;;;;5111420;27;20055;-62
2023/08/14 12:32:11;;;;;;;4.15;2.08;;;;;;;;;;5113467;28;20054;-62
2023/08/14 12:34:40;;;;;;;4.00;1.92;;;;;;;;;;5112874;28;20052;-62
2023/08/14 12:37:06;;;;;;;;;;;;;;;;;;5111935;28;20087;-62
2023/08/14 12:39:33;;;;;;;4.70;2.20;;;;;;;;;;5113709;27;19920;-62
2023/08/14 12:42:00;;;;;;;4.97;2.00;;;;;;;;;;5112470;28;20066;-62
2023/08/14 12:44:27;;;;;;;4.32;2.13;;;;;;;;;;5112348;27;20047;-62
2023/08/14 12:46:55;;;;;;;3.17;2.00;;;;;;;;;;5112654;28;20051;-63
2023/08/14 12:49:22;;;;;;;3.67;1.98;;;;;;;;;;5111618;28;20058;-62
2023/08/14 12:51:52;;;;;;;2.80;1.93;;;;;;;;;;5110605;27;20047;-63
2023/08/14 12:54:20;;;;;;;4.05;1.90;;;;;;;;;;5110819;28;20063;-62
2023/08/14 12:56:46;;;;;;;4.95;2.38;;;;;;;;;;5113645;28;20058;-62
2023/08/14 12:59:13;;;;;;;3.67;2.08;;;;;;;;;;5111661;27;20058;-61
2023/08/14 13:01:40;;;;;;;6.00;2.33;;;;;;;;;;5110137;27;20047;-62
2023/08/14 13:04:07;;;;;;;5.68;2.50;;;;;;;;;;5109612;28;20052;-61
2023/08/14 13:06:34;;;;;;;5.15;2.08;;;;;;;;;;5112415;28;20051;-59
2023/08/14 13:09:02;;;;;;;4.75;2.10;;;;;;;;;;5109144;28;20488;-61
2023/08/14 13:11:29;;;;;;;3.50;1.90;;;;;;;;;;5112491;28;20408;-61
2023/08/14 13:13:56;;;;;;;4.22;1.83;;;;;;;;;;5108743;28;20052;-61
2023/08/14 13:16:23;;;;;;;4.75;2.20;;;;;;;;;;5111043;27;20047;-61
2023/08/14 13:18:50;;;;;;;3.47;1.90;;;;;;;;;;5110203;27;20055;-62
2023/08/14 13:21:17;;;;;;;4.57;2.05;;;;;;;;;;5111043;28;20043;-61
2023/08/14 13:23:44;;;;;;;5.10;2.08;;;;;;;;;;5112492;28;20587;-60
2023/08/14 13:26:12;;;;;;;4.22;1.98;;;;;;;;;;5110942;27;20051;-58
2023/08/14 13:28:40;;;;;;;3.72;2.20;;;;;;;;;;5111355;28;20392;-60
2023/08/14 13:31:07;;;;;;;3.78;1.98;;;;;;;;;;5109476;27;20059;-59
2023/08/14 13:33:34;;;;;;;4.15;2.00;;;;;;;;;;5111385;28;20047;-60
2023/08/14 13:36:01;;;;;;;7.05;2.20;;;;;;;;;;5112835;28;20056;-61
2023/08/14 13:38:28;;;;;;;5.82;2.20;;;;;;;;;;5108294;28;20437;-59
2023/08/14 13:40:55;;;;;;;3.05;1.88;;;;;;;;;;5107129;28;20075;-60
2023/08/14 13:43:24;;;;;;;4.47;2.30;;;;;;;;;;5111613;28;20055;-60
2023/08/14 13:45:51;;;;;;;5.05;2.28;;;;;;;;;;5109353;27;20420;-60
2023/08/14 13:48:17;;;;;;;5.03;2.35;;;;;;;;;;5106084;28;20048;-60
2023/08/14 13:50:44;;;;;;;3.15;1.80;;;;;;;;;;5110663;28;20048;-60
2023/08/14 13:53:11;;;;;;;3.40;1.95;;;;;;;;;;5111672;28;20044;-60
2023/08/14 13:55:42;;;;;;;4.15;2.30;;;;;;;;;;5108050;28;20051;-60
2023/08/14 13:58:09;;;;;;;3.20;2.00;;;;;;;;;;5108540;27;20051;-59
2023/08/14 14:00:37;;;;;;;4.13;1.98;;;;;;;;;;5115241;27;20051;-60
2023/08/14 14:03:04;;;;;;;4.70;1.98;;;;;;;;;;5111216;28;20047;-60
2023/08/14 14:05:31;;;;;;;3.10;1.80;;;;;;;;;;5110726;28;20051;-60
2023/08/14 14:07:57;;;;;;;4.57;2.00;;;;;;;;;;5106956;27;20476;-58
2023/08/14 14:10:24;;;;;;;3.60;2.10;;;;;;;;;;5125876;27;20407;-60
2023/08/14 14:12:51;;;;;;;3.38;2.10;;;;;;;;;;5127600;27;20054;-58
2023/08/14 14:15:18;;;;;;;4.75;2.03;;;;;;;;;;5111730;27;20052;-57
2023/08/14 14:17:46;;;;;;;2.78;1.83;;;;;;;;;;5114105;27;20395;-60
2023/08/14 14:20:13;;;;;;;4.07;1.98;;;;;;;;;;5109142;27;20047;-60
2023/08/14 14:22:40;;;;;;;4.18;1.98;;;;;;;;;;5109438;27;20048;-60
2023/08/14 14:25:07;;;;;;;3.55;1.55;;;;;;;;;;5108651;27;20051;-60
2023/08/14 14:27:33;;;;;;;3.75;2.08;;;;;;;;;;5120100;27;20498;-59
2023/08/14 14:30:00;;;;;;;4.03;2.10;;;;;;;;;;5110270;27;20074;-59
2023/08/14 14:32:27;;;;;;;3.55;1.85;;;;;;;;;;5109345;27;20047;-60
2023/08/14 14:34:56;;;;;;;3.80;1.77;;;;;;;;;;5109640;27;20066;-60
2023/08/14 14:37:22;;;;;;;;;;;;;;;;;;5108076;28;20055;-59
2023/08/14 14:39:49;;;;;;;2.80;1.63;;;;;;;;;;5108080;28;19920;-60
2023/08/14 14:42:17;;;;;;;4.07;2.13;;;;;;;;;;5108007;28;20051;-60
2023/08/14 14:44:44;;;;;;;4.07;2.20;;;;;;;;;;5108824;28;20044;-60